sensor_id;sensor_type;location;lat;lon;timestamp;P1;durP1;ratioP1;P2;durP2;ratioP2
6109;SDS011;3085;49.444;11.054;2023-12-20T00:02:02;8.13;;;3.70;;
6109;SDS011;3085;49.444;11.054;2023-12-20T00:04:29;6.00;;;3.40;;
6109;SDS011;3085;49.444;11.054;2023-12-20T00:06:57;4.40;;;3.40;;
6109;SDS011;3085;49.444;11.054;2023-12-20T00:09:24;5.53;;;3.53;;
6109;SDS011;3085;49.444;11.054;2023-12-20T00:11:52;10.80;;;3.27;;
6109;SDS011;3085;49.444;11.054;2023-12-20T00:14:18;3.83;;;2.77;;
6109;SDS011;3085;49.444;11.054;2023-12-20T00:16:45;4.73;;;3.27;;
6109;SDS011;3085;49.444;11.054;2023-12-20T00:19:11;5.10;;;3.27;;
6109;SDS011;3085;49.444;11.054;2023-12-20T00:21:38;10.03;;;3.40;;
6109;SDS011;3085;49.444;11.054;2023-12-20T00:24:05;4.53;;;2.57;;
6109;SDS011;3085;49.444;11.054;2023-12-20T00:26:32;7.40;;;3.50;;
6109;SDS011;3085;49.444;11.054;2023-12-20T00:29:00;11.90;;;3.63;;
6109;SDS011;3085;49.444;11.054;2023-12-20T00:31:27;4.87;;;2.80;;
6109;SDS011;3085;49.444;11.054;2023-12-20T00:33:53;5.50;;;3.13;;
6109;SDS011;3085;49.444;11.054;2023-12-20T00:36:21;5.87;;;3.10;;
6109;SDS011;3085;49.444;11.054;2023-12-20T00:38:48;4.60;;;2.50;;
6109;SDS011;3085;49.444;11.054;2023-12-20T00:41:15;14.53;;;3.40;;
6109;SDS011;3085;49.444;11.054;2023-12-20T00:43:41;6.33;;;3.00;;
6109;SDS011;3085;49.444;11.054;2023-12-20T00:46:09;3.10;;;2.40;;
6109;SDS011;3085;49.444;11.054;2023-12-20T00:48:36;4.10;;;2.90;;
6109;SDS011;3085;49.444;11.054;2023-12-20T00:51:03;5.77;;;2.70;;
6109;SDS011;3085;49.444;11.054;2023-12-20T00:53:30;5.67;;;3.33;;
6109;SDS011;3085;49.444;11.054;2023-12-20T00:55:56;4.10;;;2.33;;
6109;SDS011;3085;49.444;11.054;2023-12-20T00:58:24;5.03;;;2.80;;
6109;SDS011;3085;49.444;11.054;2023-12-20T01:00:51;4.57;;;2.73;;
6109;SDS011;3085;49.444;11.054;2023-12-20T01:03:20;7.33;;;3.03;;
6109;SDS011;3085;49.444;11.054;2023-12-20T01:05:46;4.70;;;2.87;;
6109;SDS011;3085;49.444;11.054;2023-12-20T01:08:13;5.90;;;3.27;;
6109;SDS011;3085;49.444;11.054;2023-12-20T01:10:39;5.90;;;2.90;;
6109;SDS011;3085;49.444;11.054;2023-12-20T01:13:06;3.80;;;2.47;;
6109;SDS011;3085;49.444;11.054;2023-12-20T01:15:33;4.57;;;2.10;;
6109;SDS011;3085;49.444;11.054;2023-12-20T01:18:00;6.10;;;2.83;;
6109;SDS011;3085;49.444;11.054;2023-12-20T01:20:28;2.80;;;1.87;;
6109;SDS011;3085;49.444;11.054;2023-12-20T01:22:55;4.00;;;2.93;;
6109;SDS011;3085;49.444;11.054;2023-12-20T01:25:22;4.70;;;3.13;;
6109;SDS011;3085;49.444;11.054;2023-12-20T01:27:48;3.30;;;2.20;;
6109;SDS011;3085;49.444;11.054;2023-12-20T01:30:16;3.63;;;2.07;;
6109;SDS011;3085;49.444;11.054;2023-12-20T01:32:43;6.63;;;2.07;;
6109;SDS011;3085;49.444;11.054;2023-12-20T01:35:09;2.00;;;1.70;;
6109;SDS011;3085;49.444;11.054;2023-12-20T01:37:38;5.77;;;1.83;;
6109;SDS011;3085;49.444;11.054;2023-12-20T01:40:05;3.10;;;1.97;;
6109;SDS011;3085;49.444;11.054;2023-12-20T01:42:33;2.17;;;1.53;;
6109;SDS011;3085;49.444;11.054;2023-12-20T01:44:59;2.17;;;1.60;;
6109;SDS011;3085;49.444;11.054;2023-12-20T01:47:27;2.40;;;1.80;;
6109;SDS011;3085;49.444;11.054;2023-12-20T01:49:54;6.50;;;1.83;;
6109;SDS011;3085;49.444;11.054;2023-12-20T01:52:21;2.40;;;1.70;;
6109;SDS011;3085;49.444;11.054;2023-12-20T01:54:51;1.60;;;1.40;;
6109;SDS011;3085;49.444;11.054;2023-12-20T01:57:19;1.57;;;1.20;;
6109;SDS011;3085;49.444;11.054;2023-12-20T01:59:46;1.93;;;1.47;;
6109;SDS011;3085;49.444;11.054;2023-12-20T02:02:13;2.90;;;1.83;;
6109;SDS011;3085;49.444;11.054;2023-12-20T02:04:40;1.70;;;1.37;;
6109;SDS011;3085;49.444;11.054;2023-12-20T02:07:08;1.87;;;1.60;;
6109;SDS011;3085;49.444;11.054;2023-12-20T02:09:35;1.60;;;1.40;;
6109;SDS011;3085;49.444;11.054;2023-12-20T02:12:04;2.40;;;1.70;;
6109;SDS011;3085;49.444;11.054;2023-12-20T02:14:32;2.27;;;1.63;;
6109;SDS011;3085;49.444;11.054;2023-12-20T02:16:58;1.77;;;1.40;;
6109;SDS011;3085;49.444;11.054;2023-12-20T02:19:25;2.10;;;1.43;;
6109;SDS011;3085;49.444;11.054;2023-12-20T02:22:05;1.63;;;1.30;;
6109;SDS011;3085;49.444;11.054;2023-12-20T02:24:33;1.80;;;1.37;;
6109;SDS011;3085;49.444;11.054;2023-12-20T02:26:59;1.70;;;1.23;;
6109;SDS011;3085;49.444;11.054;2023-12-20T02:29:26;1.70;;;1.30;;
6109;SDS011;3085;49.444;11.054;2023-12-20T02:31:53;1.80;;;1.70;;
6109;SDS011;3085;49.444;11.054;2023-12-20T02:34:19;1.67;;;1.40;;
6109;SDS011;3085;49.444;11.054;2023-12-20T02:36:46;1.73;;;1.43;;
6109;SDS011;3085;49.444;11.054;2023-12-20T02:39:14;3.33;;;1.50;;
6109;SDS011;3085;49.444;11.054;2023-12-20T02:41:41;2.00;;;1.23;;
6109;SDS011;3085;49.444;11.054;2023-12-20T02:44:07;2.53;;;1.53;;
6109;SDS011;3085;49.444;11.054;2023-12-20T02:46:34;2.30;;;1.37;;
6109;SDS011;3085;49.444;11.054;2023-12-20T02:49:07;1.50;;;1.30;;
6109;SDS011;3085;49.444;11.054;2023-12-20T02:51:33;1.50;;;1.40;;
6109;SDS011;3085;49.444;11.054;2023-12-20T02:54:03;1.57;;;1.33;;
6109;SDS011;3085;49.444;11.054;2023-12-20T02:56:31;1.80;;;1.50;;
6109;SDS011;3085;49.444;11.054;2023-12-20T02:58:58;1.70;;;1.30;;
6109;SDS011;3085;49.444;11.054;2023-12-20T03:01:24;1.50;;;1.27;;
6109;SDS011;3085;49.444;11.054;2023-12-20T03:03:50;2.03;;;1.30;;
6109;SDS011;3085;49.444;11.054;2023-12-20T03:06:17;1.43;;;1.33;;
6109;SDS011;3085;49.444;11.054;2023-12-20T03:08:47;1.50;;;1.30;;
6109;SDS011;3085;49.444;11.054;2023-12-20T03:11:13;2.83;;;1.60;;
6109;SDS011;3085;49.444;11.054;2023-12-20T03:13:41;1.40;;;1.30;;
6109;SDS011;3085;49.444;11.054;2023-12-20T03:16:08;2.50;;;1.60;;
6109;SDS011;3085;49.444;11.054;2023-12-20T03:18:35;1.80;;;1.40;;
6109;SDS011;3085;49.444;11.054;2023-12-20T03:21:02;1.60;;;1.50;;
6109;SDS011;3085;49.444;11.054;2023-12-20T03:23:28;1.67;;;1.40;;
6109;SDS011;3085;49.444;11.054;2023-12-20T03:25:55;2.90;;;1.60;;
6109;SDS011;3085;49.444;11.054;2023-12-20T03:28:22;2.07;;;1.50;;
6109;SDS011;3085;49.444;11.054;2023-12-20T03:30:50;2.13;;;1.47;;
6109;SDS011;3085;49.444;11.054;2023-12-20T03:33:16;1.40;;;1.30;;
6109;SDS011;3085;49.444;11.054;2023-12-20T03:35:43;2.27;;;1.97;;
6109;SDS011;3085;49.444;11.054;2023-12-20T03:38:10;1.70;;;1.60;;
6109;SDS011;3085;49.444;11.054;2023-12-20T03:40:37;1.57;;;1.47;;
6109;SDS011;3085;49.444;11.054;2023-12-20T03:43:03;1.70;;;1.60;;
6109;SDS011;3085;49.444;11.054;2023-12-20T03:45:30;1.77;;;1.50;;
6109;SDS011;3085;49.444;11.054;2023-12-20T03:47:58;2.00;;;1.80;;
6109;SDS011;3085;49.444;11.054;2023-12-20T03:50:25;1.90;;;1.50;;
6109;SDS011;3085;49.444;11.054;2023-12-20T03:52:52;1.70;;;1.50;;
6109;SDS011;3085;49.444;11.054;2023-12-20T03:55:18;1.60;;;1.50;;
6109;SDS011;3085;49.444;11.054;2023-12-20T03:57:45;1.50;;;1.40;;
6109;SDS011;3085;49.444;11.054;2023-12-20T04:00:12;1.53;;;1.43;;
6109;SDS011;3085;49.444;11.054;2023-12-20T04:02:39;2.20;;;1.50;;
6109;SDS011;3085;49.444;11.054;2023-12-20T04:05:08;1.70;;;1.40;;
6109;SDS011;3085;49.444;11.054;2023-12-20T04:07:35;2.10;;;1.60;;
6109;SDS011;3085;49.444;11.054;2023-12-20T04:10:02;1.50;;;1.40;;
6109;SDS011;3085;49.444;11.054;2023-12-20T04:12:29;1.60;;;1.37;;
6109;SDS011;3085;49.444;11.054;2023-12-20T04:14:56;1.50;;;1.30;;
6109;SDS011;3085;49.444;11.054;2023-12-20T04:17:23;1.70;;;1.40;;
6109;SDS011;3085;49.444;11.054;2023-12-20T04:19:50;1.40;;;1.30;;
6109;SDS011;3085;49.444;11.054;2023-12-20T04:22:18;2.00;;;1.40;;
6109;SDS011;3085;49.444;11.054;2023-12-20T04:24:45;2.77;;;1.73;;
6109;SDS011;3085;49.444;11.054;2023-12-20T04:27:11;1.73;;;1.60;;
6109;SDS011;3085;49.444;11.054;2023-12-20T04:29:38;2.40;;;1.73;;
6109;SDS011;3085;49.444;11.054;2023-12-20T04:32:05;1.60;;;1.40;;
6109;SDS011;3085;49.444;11.054;2023-12-20T04:34:32;1.77;;;1.63;;
6109;SDS011;3085;49.444;11.054;2023-12-20T04:36:58;2.03;;;1.67;;
6109;SDS011;3085;49.444;11.054;2023-12-20T04:39:28;1.70;;;1.50;;
6109;SDS011;3085;49.444;11.054;2023-12-20T04:41:55;2.03;;;1.37;;
6109;SDS011;3085;49.444;11.054;2023-12-20T04:44:22;1.90;;;1.47;;
6109;SDS011;3085;49.444;11.054;2023-12-20T04:46:48;2.30;;;1.50;;
6109;SDS011;3085;49.444;11.054;2023-12-20T04:49:15;2.27;;;1.57;;
6109;SDS011;3085;49.444;11.054;2023-12-20T04:51:42;1.83;;;1.60;;
6109;SDS011;3085;49.444;11.054;2023-12-20T04:54:08;1.87;;;1.50;;
6109;SDS011;3085;49.444;11.054;2023-12-20T04:56:37;2.10;;;1.60;;
6109;SDS011;3085;49.444;11.054;2023-12-20T04:59:03;1.90;;;1.70;;
6109;SDS011;3085;49.444;11.054;2023-12-20T05:01:30;2.83;;;1.80;;
6109;SDS011;3085;49.444;11.054;2023-12-20T05:03:57;2.10;;;1.90;;
6109;SDS011;3085;49.444;11.054;2023-12-20T05:06:24;2.23;;;1.97;;
6109;SDS011;3085;49.444;11.054;2023-12-20T05:08:50;2.20;;;1.70;;
6109;SDS011;3085;49.444;11.054;2023-12-20T05:11:17;1.60;;;1.40;;
6109;SDS011;3085;49.444;11.054;2023-12-20T05:13:45;2.20;;;1.60;;
6109;SDS011;3085;49.444;11.054;2023-12-20T05:16:12;1.57;;;1.37;;
6109;SDS011;3085;49.444;11.054;2023-12-20T05:18:39;2.67;;;1.60;;
6109;SDS011;3085;49.444;11.054;2023-12-20T05:21:05;1.87;;;1.60;;
6109;SDS011;3085;49.444;11.054;2023-12-20T05:23:32;1.60;;;1.40;;
6109;SDS011;3085;49.444;11.054;2023-12-20T05:25:59;1.60;;;1.40;;
6109;SDS011;3085;49.444;11.054;2023-12-20T05:28:26;1.67;;;1.40;;
6109;SDS011;3085;49.444;11.054;2023-12-20T05:30:54;3.07;;;1.43;;
6109;SDS011;3085;49.444;11.054;2023-12-20T05:33:21;2.13;;;1.80;;
6109;SDS011;3085;49.444;11.054;2023-12-20T05:35:47;2.90;;;1.70;;
6109;SDS011;3085;49.444;11.054;2023-12-20T05:38:14;1.80;;;1.50;;
6109;SDS011;3085;49.444;11.054;2023-12-20T05:40:41;1.80;;;1.70;;
6109;SDS011;3085;49.444;11.054;2023-12-20T05:43:08;2.00;;;1.70;;
6109;SDS011;3085;49.444;11.054;2023-12-20T05:45:35;1.40;;;1.30;;
6109;SDS011;3085;49.444;11.054;2023-12-20T05:48:03;2.00;;;1.70;;
6109;SDS011;3085;49.444;11.054;2023-12-20T05:50:30;1.70;;;1.37;;
6109;SDS011;3085;49.444;11.054;2023-12-20T05:52:57;2.03;;;1.47;;
6109;SDS011;3085;49.444;11.054;2023-12-20T05:55:23;4.13;;;1.90;;
6109;SDS011;3085;49.444;11.054;2023-12-20T05:57:50;2.43;;;2.00;;
6109;SDS011;3085;49.444;11.054;2023-12-20T06:00:17;2.03;;;1.40;;
6109;SDS011;3085;49.444;11.054;2023-12-20T06:02:44;1.57;;;1.47;;
6109;SDS011;3085;49.444;11.054;2023-12-20T06:05:12;2.17;;;1.70;;
6109;SDS011;3085;49.444;11.054;2023-12-20T06:07:39;1.70;;;1.50;;
6109;SDS011;3085;49.444;11.054;2023-12-20T06:10:06;1.93;;;1.70;;
6109;SDS011;3085;49.444;11.054;2023-12-20T06:12:33;1.60;;;1.37;;
6109;SDS011;3085;49.444;11.054;2023-12-20T06:15:01;1.50;;;1.40;;
6109;SDS011;3085;49.444;11.054;2023-12-20T06:17:28;2.30;;;1.73;;
6109;SDS011;3085;49.444;11.054;2023-12-20T06:19:55;2.93;;;2.33;;
6109;SDS011;3085;49.444;11.054;2023-12-20T06:22:23;2.87;;;1.83;;
6109;SDS011;3085;49.444;11.054;2023-12-20T06:24:50;1.80;;;1.70;;
6109;SDS011;3085;49.444;11.054;2023-12-20T06:27:17;2.57;;;1.97;;
6109;SDS011;3085;49.444;11.054;2023-12-20T06:29:43;1.90;;;1.70;;
6109;SDS011;3085;49.444;11.054;2023-12-20T06:32:10;1.50;;;1.40;;
6109;SDS011;3085;49.444;11.054;2023-12-20T06:34:37;1.60;;;1.50;;
6109;SDS011;3085;49.444;11.054;2023-12-20T06:37:04;3.47;;;1.97;;
6109;SDS011;3085;49.444;11.054;2023-12-20T06:39:32;1.90;;;1.70;;
6109;SDS011;3085;49.444;11.054;2023-12-20T06:41:59;1.90;;;1.70;;
6109;SDS011;3085;49.444;11.054;2023-12-20T06:44:26;5.00;;;2.07;;
6109;SDS011;3085;49.444;11.054;2023-12-20T06:46:53;2.17;;;1.73;;
6109;SDS011;3085;49.444;11.054;2023-12-20T06:49:20;1.83;;;1.63;;
6109;SDS011;3085;49.444;11.054;2023-12-20T06:51:46;2.10;;;1.70;;
6109;SDS011;3085;49.444;11.054;2023-12-20T06:54:13;3.50;;;1.90;;
6109;SDS011;3085;49.444;11.054;2023-12-20T06:56:41;3.40;;;1.97;;
6109;SDS011;3085;49.444;11.054;2023-12-20T06:59:08;3.10;;;2.13;;
6109;SDS011;3085;49.444;11.054;2023-12-20T07:01:34;2.63;;;1.83;;
6109;SDS011;3085;49.444;11.054;2023-12-20T07:04:01;2.23;;;1.80;;
6109;SDS011;3085;49.444;11.054;2023-12-20T07:06:28;2.77;;;1.93;;
6109;SDS011;3085;49.444;11.054;2023-12-20T07:08:55;2.47;;;2.17;;
6109;SDS011;3085;49.444;11.054;2023-12-20T07:11:21;3.87;;;2.27;;
6109;SDS011;3085;49.444;11.054;2023-12-20T07:13:49;3.40;;;2.13;;
6109;SDS011;3085;49.444;11.054;2023-12-20T07:16:16;2.67;;;1.70;;
6109;SDS011;3085;49.444;11.054;2023-12-20T07:18:43;2.30;;;2.03;;
6109;SDS011;3085;49.444;11.054;2023-12-20T07:21:09;3.30;;;2.10;;
6109;SDS011;3085;49.444;11.054;2023-12-20T07:23:36;3.77;;;2.43;;
6109;SDS011;3085;49.444;11.054;2023-12-20T07:26:03;3.00;;;2.10;;
6109;SDS011;3085;49.444;11.054;2023-12-20T07:28:30;2.67;;;1.80;;
6109;SDS011;3085;49.444;11.054;2023-12-20T07:30:58;6.07;;;2.50;;
6109;SDS011;3085;49.444;11.054;2023-12-20T07:33:25;2.10;;;1.70;;
6109;SDS011;3085;49.444;11.054;2023-12-20T07:35:51;2.93;;;2.27;;
6109;SDS011;3085;49.444;11.054;2023-12-20T07:38:18;2.83;;;2.53;;
6109;SDS011;3085;49.444;11.054;2023-12-20T07:40:45;2.63;;;2.17;;
6109;SDS011;3085;49.444;11.054;2023-12-20T07:43:11;3.03;;;2.07;;
6109;SDS011;3085;49.444;11.054;2023-12-20T07:45:38;3.27;;;2.27;;
6109;SDS011;3085;49.444;11.054;2023-12-20T07:48:07;4.43;;;2.90;;
6109;SDS011;3085;49.444;11.054;2023-12-20T07:50:33;3.90;;;2.70;;
6109;SDS011;3085;49.444;11.054;2023-12-20T07:53:00;2.97;;;2.30;;
6109;SDS011;3085;49.444;11.054;2023-12-20T07:55:28;2.40;;;2.03;;
6109;SDS011;3085;49.444;11.054;2023-12-20T07:57:55;2.20;;;2.00;;
6109;SDS011;3085;49.444;11.054;2023-12-20T08:00:22;2.63;;;2.33;;
6109;SDS011;3085;49.444;11.054;2023-12-20T08:02:48;5.13;;;2.50;;
6109;SDS011;3085;49.444;11.054;2023-12-20T08:05:23;3.67;;;2.60;;
6109;SDS011;3085;49.444;11.054;2023-12-20T08:07:55;2.50;;;2.07;;
6109;SDS011;3085;49.444;11.054;2023-12-20T08:10:21;3.67;;;2.70;;
6109;SDS011;3085;49.444;11.054;2023-12-20T08:12:51;5.80;;;3.07;;
6109;SDS011;3085;49.444;11.054;2023-12-20T08:15:18;4.43;;;3.10;;
6109;SDS011;3085;49.444;11.054;2023-12-20T08:17:45;3.23;;;2.43;;
6109;SDS011;3085;49.444;11.054;2023-12-20T08:20:11;3.20;;;2.53;;
6109;SDS011;3085;49.444;11.054;2023-12-20T08:22:39;4.17;;;2.53;;
6109;SDS011;3085;49.444;11.054;2023-12-20T08:25:06;3.50;;;2.50;;
6109;SDS011;3085;49.444;11.054;2023-12-20T08:27:33;4.20;;;2.73;;
6109;SDS011;3085;49.444;11.054;2023-12-20T08:30:02;3.03;;;2.57;;
6109;SDS011;3085;49.444;11.054;2023-12-20T08:32:29;2.53;;;2.20;;
6109;SDS011;3085;49.444;11.054;2023-12-20T08:34:57;4.67;;;2.27;;
6109;SDS011;3085;49.444;11.054;2023-12-20T08:37:23;2.57;;;2.30;;
6109;SDS011;3085;49.444;11.054;2023-12-20T08:39:51;2.77;;;2.43;;
6109;SDS011;3085;49.444;11.054;2023-12-20T08:42:18;4.70;;;3.43;;
6109;SDS011;3085;49.444;11.054;2023-12-20T08:44:45;3.57;;;2.47;;
6109;SDS011;3085;49.444;11.054;2023-12-20T08:47:11;4.30;;;2.70;;
6109;SDS011;3085;49.444;11.054;2023-12-20T08:49:40;5.60;;;2.53;;
6109;SDS011;3085;49.444;11.054;2023-12-20T08:52:07;2.70;;;2.20;;
6109;SDS011;3085;49.444;11.054;2023-12-20T08:54:34;3.87;;;2.30;;
6109;SDS011;3085;49.444;11.054;2023-12-20T08:57:02;3.53;;;2.67;;
6109;SDS011;3085;49.444;11.054;2023-12-20T08:59:31;2.77;;;2.47;;
6109;SDS011;3085;49.444;11.054;2023-12-20T09:01:58;2.90;;;2.27;;
6109;SDS011;3085;49.444;11.054;2023-12-20T09:04:25;4.80;;;2.50;;
6109;SDS011;3085;49.444;11.054;2023-12-20T09:06:51;3.30;;;2.23;;
6109;SDS011;3085;49.444;11.054;2023-12-20T09:09:18;5.50;;;3.10;;
6109;SDS011;3085;49.444;11.054;2023-12-20T09:11:45;2.00;;;1.77;;
6109;SDS011;3085;49.444;11.054;2023-12-20T09:14:14;4.00;;;2.50;;
6109;SDS011;3085;49.444;11.054;2023-12-20T09:16:41;4.30;;;2.40;;
6109;SDS011;3085;49.444;11.054;2023-12-20T09:19:07;7.23;;;2.63;;
6109;SDS011;3085;49.444;11.054;2023-12-20T09:21:34;3.53;;;2.17;;
6109;SDS011;3085;49.444;11.054;2023-12-20T09:24:01;3.23;;;2.33;;
6109;SDS011;3085;49.444;11.054;2023-12-20T09:26:28;2.20;;;1.60;;
6109;SDS011;3085;49.444;11.054;2023-12-20T09:28:54;3.00;;;1.80;;
6109;SDS011;3085;49.444;11.054;2023-12-20T09:31:22;12.10;;;2.40;;
6109;SDS011;3085;49.444;11.054;2023-12-20T09:33:49;2.90;;;2.40;;
6109;SDS011;3085;49.444;11.054;2023-12-20T09:36:16;2.90;;;2.13;;
6109;SDS011;3085;49.444;11.054;2023-12-20T09:38:42;4.50;;;2.20;;
6109;SDS011;3085;49.444;11.054;2023-12-20T09:41:09;3.20;;;1.93;;
6109;SDS011;3085;49.444;11.054;2023-12-20T09:43:37;2.03;;;1.70;;
6109;SDS011;3085;49.444;11.054;2023-12-20T09:46:04;2.43;;;2.23;;
6109;SDS011;3085;49.444;11.054;2023-12-20T09:48:33;2.73;;;2.10;;
6109;SDS011;3085;49.444;11.054;2023-12-20T09:51:00;3.40;;;1.77;;
6109;SDS011;3085;49.444;11.054;2023-12-20T09:53:27;2.90;;;1.87;;
6109;SDS011;3085;49.444;11.054;2023-12-20T09:55:55;2.87;;;1.77;;
6109;SDS011;3085;49.444;11.054;2023-12-20T09:58:25;2.73;;;2.23;;
6109;SDS011;3085;49.444;11.054;2023-12-20T10:00:52;6.50;;;1.93;;
6109;SDS011;3085;49.444;11.054;2023-12-20T10:03:20;9.23;;;1.90;;
6109;SDS011;3085;49.444;11.054;2023-12-20T10:05:53;8.20;;;2.37;;
6109;SDS011;3085;49.444;11.054;2023-12-20T10:08:22;8.30;;;1.97;;
6109;SDS011;3085;49.444;11.054;2023-12-20T10:10:50;2.33;;;1.73;;
6109;SDS011;3085;49.444;11.054;2023-12-20T10:13:17;4.17;;;1.70;;
6109;SDS011;3085;49.444;11.054;2023-12-20T10:15:43;2.13;;;1.80;;
6109;SDS011;3085;49.444;11.054;2023-12-20T10:18:11;13.33;;;2.10;;
6109;SDS011;3085;49.444;11.054;2023-12-20T10:20:40;1.97;;;1.53;;
6109;SDS011;3085;49.444;11.054;2023-12-20T10:23:08;2.33;;;1.80;;
6109;SDS011;3085;49.444;11.054;2023-12-20T10:25:35;7.43;;;2.10;;
6109;SDS011;3085;49.444;11.054;2023-12-20T10:28:08;2.37;;;1.80;;
6109;SDS011;3085;49.444;11.054;2023-12-20T10:30:36;2.93;;;1.90;;
6109;SDS011;3085;49.444;11.054;2023-12-20T10:33:03;3.43;;;1.70;;
6109;SDS011;3085;49.444;11.054;2023-12-20T10:35:31;5.03;;;1.70;;
6109;SDS011;3085;49.444;11.054;2023-12-20T10:37:58;2.13;;;1.90;;
6109;SDS011;3085;49.444;11.054;2023-12-20T10:40:31;5.40;;;2.37;;
6109;SDS011;3085;49.444;11.054;2023-12-20T10:43:01;8.67;;;2.60;;
6109;SDS011;3085;49.444;11.054;2023-12-20T10:45:29;3.13;;;2.10;;
6109;SDS011;3085;49.444;11.054;2023-12-20T10:47:55;2.60;;;2.30;;
6109;SDS011;3085;49.444;11.054;2023-12-20T10:50:24;3.80;;;2.07;;
6109;SDS011;3085;49.444;11.054;2023-12-20T10:52:52;11.63;;;2.23;;
6109;SDS011;3085;49.444;11.054;2023-12-20T10:55:21;4.17;;;1.63;;
6109;SDS011;3085;49.444;11.054;2023-12-20T10:57:49;3.30;;;1.50;;
6109;SDS011;3085;49.444;11.054;2023-12-20T11:00:17;16.57;;;3.20;;
6109;SDS011;3085;49.444;11.054;2023-12-20T11:02:44;4.53;;;1.97;;
6109;SDS011;3085;49.444;11.054;2023-12-20T11:05:14;3.87;;;2.20;;
6109;SDS011;3085;49.444;11.054;2023-12-20T11:07:50;4.10;;;1.90;;
6109;SDS011;3085;49.444;11.054;2023-12-20T11:10:23;3.07;;;2.20;;
6109;SDS011;3085;49.444;11.054;2023-12-20T11:12:57;6.67;;;2.60;;
6109;SDS011;3085;49.444;11.054;2023-12-20T11:15:34;3.10;;;1.93;;
6109;SDS011;3085;49.444;11.054;2023-12-20T11:18:01;3.73;;;2.00;;
6109;SDS011;3085;49.444;11.054;2023-12-20T11:20:35;1.70;;;1.60;;
6109;SDS011;3085;49.444;11.054;2023-12-20T11:23:02;3.07;;;1.70;;
6109;SDS011;3085;49.444;11.054;2023-12-20T11:25:29;2.30;;;1.40;;
6109;SDS011;3085;49.444;11.054;2023-12-20T11:28:07;5.90;;;1.80;;
6109;SDS011;3085;49.444;11.054;2023-12-20T11:30:41;2.43;;;1.70;;
6109;SDS011;3085;49.444;11.054;2023-12-20T11:33:12;3.87;;;1.77;;
6109;SDS011;3085;49.444;11.054;2023-12-20T11:35:39;3.57;;;1.87;;
6109;SDS011;3085;49.444;11.054;2023-12-20T11:38:07;3.53;;;1.70;;
6109;SDS011;3085;49.444;11.054;2023-12-20T11:40:35;9.50;;;2.20;;
6109;SDS011;3085;49.444;11.054;2023-12-20T11:43:02;9.70;;;2.40;;
6109;SDS011;3085;49.444;11.054;2023-12-20T11:45:31;3.00;;;2.00;;
6109;SDS011;3085;49.444;11.054;2023-12-20T11:47:58;1.83;;;1.60;;
6109;SDS011;3085;49.444;11.054;2023-12-20T11:50:25;9.60;;;2.67;;
6109;SDS011;3085;49.444;11.054;2023-12-20T11:52:52;2.70;;;2.07;;
6109;SDS011;3085;49.444;11.054;2023-12-20T11:55:20;3.50;;;1.93;;
6109;SDS011;3085;49.444;11.054;2023-12-20T11:57:47;12.37;;;2.40;;
6109;SDS011;3085;49.444;11.054;2023-12-20T12:00:14;3.30;;;2.10;;
6109;SDS011;3085;49.444;11.054;2023-12-20T12:02:43;2.00;;;1.63;;
6109;SDS011;3085;49.444;11.054;2023-12-20T12:05:09;2.43;;;1.73;;
6109;SDS011;3085;49.444;11.054;2023-12-20T12:07:36;6.10;;;2.00;;
6109;SDS011;3085;49.444;11.054;2023-12-20T12:10:03;9.17;;;2.60;;
6109;SDS011;3085;49.444;11.054;2023-12-20T12:12:30;5.13;;;2.07;;
6109;SDS011;3085;49.444;11.054;2023-12-20T12:14:57;5.57;;;2.27;;
6109;SDS011;3085;49.444;11.054;2023-12-20T12:17:25;12.43;;;2.80;;
6109;SDS011;3085;49.444;11.054;2023-12-20T12:20:01;11.30;;;1.90;;
6109;SDS011;3085;49.444;11.054;2023-12-20T12:22:29;10.40;;;2.60;;
6109;SDS011;3085;49.444;11.054;2023-12-20T12:24:58;4.73;;;2.37;;
6109;SDS011;3085;49.444;11.054;2023-12-20T12:27:26;5.17;;;2.20;;
6109;SDS011;3085;49.444;11.054;2023-12-20T12:29:59;3.90;;;2.10;;
6109;SDS011;3085;49.444;11.054;2023-12-20T12:32:27;5.03;;;1.93;;
6109;SDS011;3085;49.444;11.054;2023-12-20T12:34:55;4.23;;;2.37;;
6109;SDS011;3085;49.444;11.054;2023-12-20T12:37:22;2.57;;;1.73;;
6109;SDS011;3085;49.444;11.054;2023-12-20T12:39:49;2.50;;;1.80;;
6109;SDS011;3085;49.444;11.054;2023-12-20T12:42:19;3.33;;;2.50;;
6109;SDS011;3085;49.444;11.054;2023-12-20T12:44:46;10.10;;;2.27;;
6109;SDS011;3085;49.444;11.054;2023-12-20T12:47:13;13.70;;;2.67;;
6109;SDS011;3085;49.444;11.054;2023-12-20T12:49:40;2.97;;;1.90;;
6109;SDS011;3085;49.444;11.054;2023-12-20T12:52:08;3.07;;;2.00;;
6109;SDS011;3085;49.444;11.054;2023-12-20T12:54:35;3.70;;;2.07;;
6109;SDS011;3085;49.444;11.054;2023-12-20T12:57:02;5.13;;;2.70;;
6109;SDS011;3085;49.444;11.054;2023-12-20T12:59:29;10.70;;;2.20;;
6109;SDS011;3085;49.444;11.054;2023-12-20T13:01:55;3.80;;;2.20;;
6109;SDS011;3085;49.444;11.054;2023-12-20T13:04:23;2.73;;;1.80;;
6109;SDS011;3085;49.444;11.054;2023-12-20T13:06:50;4.07;;;2.40;;
6109;SDS011;3085;49.444;11.054;2023-12-20T13:09:20;4.03;;;1.97;;
6109;SDS011;3085;49.444;11.054;2023-12-20T13:11:47;6.00;;;3.93;;
6109;SDS011;3085;49.444;11.054;2023-12-20T13:14:13;2.10;;;1.70;;
6109;SDS011;3085;49.444;11.054;2023-12-20T13:16:43;3.50;;;2.10;;
6109;SDS011;3085;49.444;11.054;2023-12-20T13:19:10;2.13;;;1.83;;
6109;SDS011;3085;49.444;11.054;2023-12-20T13:21:37;3.50;;;2.13;;
6109;SDS011;3085;49.444;11.054;2023-12-20T13:24:05;1.93;;;1.70;;
6109;SDS011;3085;49.444;11.054;2023-12-20T13:26:33;5.83;;;2.10;;
6109;SDS011;3085;49.444;11.054;2023-12-20T13:29:00;3.03;;;1.87;;
6109;SDS011;3085;49.444;11.054;2023-12-20T13:31:26;3.57;;;1.90;;
6109;SDS011;3085;49.444;11.054;2023-12-20T13:33:53;16.83;;;2.10;;
6109;SDS011;3085;49.444;11.054;2023-12-20T13:36:20;8.10;;;1.87;;
6109;SDS011;3085;49.444;11.054;2023-12-20T13:38:46;3.43;;;2.00;;
6109;SDS011;3085;49.444;11.054;2023-12-20T13:41:14;4.43;;;1.83;;
6109;SDS011;3085;49.444;11.054;2023-12-20T13:43:42;8.63;;;1.77;;
6109;SDS011;3085;49.444;11.054;2023-12-20T13:46:09;5.20;;;1.87;;
6109;SDS011;3085;49.444;11.054;2023-12-20T13:48:35;2.97;;;2.07;;
6109;SDS011;3085;49.444;11.054;2023-12-20T13:51:03;10.73;;;1.93;;
6109;SDS011;3085;49.444;11.054;2023-12-20T13:53:30;5.10;;;2.07;;
6109;SDS011;3085;49.444;11.054;2023-12-20T13:55:57;2.80;;;1.83;;
6109;SDS011;3085;49.444;11.054;2023-12-20T13:58:25;13.27;;;2.23;;
6109;SDS011;3085;49.444;11.054;2023-12-20T14:00:53;6.63;;;2.60;;
6109;SDS011;3085;49.444;11.054;2023-12-20T14:03:19;3.53;;;1.87;;
6109;SDS011;3085;49.444;11.054;2023-12-20T14:05:46;9.70;;;2.23;;
6109;SDS011;3085;49.444;11.054;2023-12-20T14:08:13;7.50;;;2.67;;
6109;SDS011;3085;49.444;11.054;2023-12-20T14:10:39;2.80;;;1.80;;
6109;SDS011;3085;49.444;11.054;2023-12-20T14:13:06;3.83;;;1.80;;
6109;SDS011;3085;49.444;11.054;2023-12-20T14:15:33;4.60;;;2.17;;
6109;SDS011;3085;49.444;11.054;2023-12-20T14:18:03;3.73;;;2.27;;
6109;SDS011;3085;49.444;11.054;2023-12-20T14:20:32;1.70;;;1.60;;
6109;SDS011;3085;49.444;11.054;2023-12-20T14:23:00;8.03;;;2.80;;
6109;SDS011;3085;49.444;11.054;2023-12-20T14:25:26;5.93;;;2.17;;
6109;SDS011;3085;49.444;11.054;2023-12-20T14:27:53;7.93;;;2.73;;
6109;SDS011;3085;49.444;11.054;2023-12-20T14:30:20;3.00;;;1.80;;
6109;SDS011;3085;49.444;11.054;2023-12-20T14:32:46;5.03;;;2.00;;
6109;SDS011;3085;49.444;11.054;2023-12-20T14:35:15;1.90;;;1.70;;
6109;SDS011;3085;49.444;11.054;2023-12-20T14:37:42;4.40;;;2.17;;
6109;SDS011;3085;49.444;11.054;2023-12-20T14:40:10;4.70;;;2.00;;
6109;SDS011;3085;49.444;11.054;2023-12-20T14:42:40;3.40;;;1.60;;
6109;SDS011;3085;49.444;11.054;2023-12-20T14:45:07;8.17;;;2.63;;
6109;SDS011;3085;49.444;11.054;2023-12-20T14:47:34;7.47;;;2.13;;
6109;SDS011;3085;49.444;11.054;2023-12-20T14:50:02;3.97;;;1.80;;
6109;SDS011;3085;49.444;11.054;2023-12-20T14:52:30;6.20;;;1.80;;
6109;SDS011;3085;49.444;11.054;2023-12-20T14:54:58;4.80;;;2.07;;
6109;SDS011;3085;49.444;11.054;2023-12-20T14:57:25;4.43;;;2.17;;
6109;SDS011;3085;49.444;11.054;2023-12-20T14:59:52;1.93;;;1.70;;
6109;SDS011;3085;49.444;11.054;2023-12-20T15:02:19;9.70;;;2.20;;